KCTZ/CTZ METAR and TAF weather

Enter ICAO airport designator
Station Type Date Time Source
KCTZ METAR 2019/10/15 08:15 UTC NOAA

KCTZ 150815Z AUTO 00000KT 10SM CLR 12/12 A3009 RMK AO2 T01170117


Station Type Date Time Source
KCTZ Decoded METAR 2019/10/15 08:15 UTC NOAA

Clinton, Sampson County Airport, NC, United States (KCTZ) 34-58-32N 078-21-53W
Oct 15, 2019 - 04:15 AM EDT / 2019.10.15 0815 UTC
Wind: Calm:0
Visibility: 10 mile(s):0
Sky conditions: clear
Temperature: 53.1 F (11.7 C)
Dew Point: 53.1 F (11.7 C)
Relative Humidity: 100%
Pressure (altimeter): 30.09 in. Hg (1018 hPa)
ob: KCTZ 150815Z AUTO 00000KT 10SM CLR 12/12 A3009 RMK AO2 T01170117
cycle: 8

Station Type Date Time Source
KCTZ TAF UTC NOAA

Error!

Example: see airport list